createdAt,value
2022-12-01T00:01:47.266Z,7.80
2022-12-01T00:04:14.245Z,7.80
2022-12-01T00:06:41.066Z,7.80
2022-12-01T00:09:27.473Z,7.80
2022-12-01T00:11:54.468Z,7.80
2022-12-01T00:14:21.291Z,7.80
2022-12-01T00:16:48.193Z,7.80
2022-12-01T00:19:15.099Z,7.90
2022-12-01T00:21:41.959Z,7.90
2022-12-01T00:24:09.135Z,7.90
2022-12-01T00:26:36.905Z,7.80
2022-12-01T00:29:03.944Z,7.90
2022-12-01T00:31:30.911Z,7.90
2022-12-01T00:33:57.769Z,7.90
2022-12-01T00:36:24.689Z,7.90
2022-12-01T00:38:52.120Z,7.90
2022-12-01T00:41:19.202Z,7.80
2022-12-01T00:43:46.024Z,7.80
2022-12-01T00:46:12.896Z,7.80
2022-12-01T00:48:40.148Z,7.80
2022-12-01T00:51:07.167Z,7.80
2022-12-01T00:53:34.200Z,7.80
2022-12-01T00:56:01.047Z,7.80
2022-12-01T00:58:27.926Z,7.70
2022-12-01T01:03:59.134Z,7.80
2022-12-01T01:06:26.011Z,7.80
2022-12-01T01:08:52.809Z,7.70
2022-12-01T01:11:19.720Z,7.70
2022-12-01T01:13:46.540Z,7.70
2022-12-01T01:16:14.613Z,7.80
2022-12-01T01:18:41.468Z,7.80
2022-12-01T01:21:08.715Z,7.70
2022-12-01T01:23:37.703Z,7.80
2022-12-01T01:26:05.388Z,7.70
2022-12-01T01:28:32.450Z,7.70
2022-12-01T01:34:12.260Z,7.70
2022-12-01T01:39:40.190Z,7.60
2022-12-01T01:42:09.230Z,7.50
2022-12-01T01:44:45.349Z,7.50
2022-12-01T01:47:12.331Z,7.40
2022-12-01T01:49:39.612Z,7.40
2022-12-01T01:54:59.225Z,7.30
2022-12-01T01:57:27.146Z,7.30
2022-12-01T01:59:55.426Z,7.30
2022-12-01T02:02:22.304Z,7.30
2022-12-01T02:04:51.455Z,7.30
2022-12-01T02:07:18.740Z,7.20
2022-12-01T02:09:45.843Z,7.20
2022-12-01T02:12:15.873Z,7.20
2022-12-01T02:15:01.206Z,7.10
2022-12-01T02:17:34.338Z,7.10
2022-12-01T02:20:22.787Z,7.10
2022-12-01T02:22:54.105Z,7.10
2022-12-01T02:25:36.880Z,7.10
2022-12-01T02:28:22.364Z,7.00
2022-12-01T02:30:51.482Z,7.00
2022-12-01T02:33:19.567Z,7.00
2022-12-01T02:35:48.258Z,6.90
2022-12-01T02:38:18.131Z,6.90
2022-12-01T02:40:57.448Z,6.90
2022-12-01T02:43:32.411Z,6.80
2022-12-01T02:46:17.989Z,6.80
2022-12-01T02:48:46.294Z,6.80
2022-12-01T02:51:17.710Z,6.80
2022-12-01T02:53:44.542Z,6.80
2022-12-01T02:56:11.847Z,6.80
2022-12-01T02:58:38.684Z,6.80
2022-12-01T03:01:24.245Z,6.80
2022-12-01T03:03:51.223Z,6.80
2022-12-01T03:06:20.700Z,6.90
2022-12-01T03:08:47.537Z,6.90
2022-12-01T03:11:27.254Z,6.90
2022-12-01T03:13:57.408Z,7.00
2022-12-01T03:16:24.316Z,7.00
2022-12-01T03:18:55.396Z,7.00
2022-12-01T03:21:31.194Z,7.00
2022-12-01T03:24:05.812Z,7.00
2022-12-01T03:26:32.852Z,7.00
2022-12-01T03:29:01.075Z,7.00
2022-12-01T03:31:30.112Z,7.00
2022-12-01T03:34:08.064Z,7.00
2022-12-01T03:36:45.589Z,7.00
2022-12-01T03:39:13.025Z,7.00
2022-12-01T03:41:41.747Z,7.10
2022-12-01T03:44:09.597Z,7.10
2022-12-01T03:46:41.309Z,7.10
2022-12-01T03:49:09.764Z,7.10
2022-12-01T03:51:47.250Z,7.10
2022-12-01T03:54:22.635Z,7.10
2022-12-01T03:56:51.597Z,7.10
2022-12-01T03:59:18.599Z,7.10
2022-12-01T04:01:45.459Z,7.10
2022-12-01T04:04:12.644Z,7.10
2022-12-01T04:06:39.756Z,7.20
2022-12-01T04:09:06.643Z,7.10
2022-12-01T04:11:52.078Z,7.10
2022-12-01T04:14:18.897Z,7.10
2022-12-01T04:16:45.689Z,7.10
2022-12-01T04:19:12.539Z,7.10
2022-12-01T04:21:39.327Z,7.10
2022-12-01T04:24:06.297Z,7.10
2022-12-01T04:26:33.889Z,7.10
2022-12-01T04:29:01.260Z,7.00
2022-12-01T04:31:28.227Z,7.00
2022-12-01T04:33:56.048Z,7.00
2022-12-01T04:36:23.281Z,7.00
2022-12-01T04:38:50.146Z,6.90
2022-12-01T04:41:16.940Z,6.90
2022-12-01T04:43:43.793Z,6.90
2022-12-01T04:46:10.809Z,6.80
2022-12-01T04:48:38.079Z,6.80
2022-12-01T04:51:05.456Z,6.80
2022-12-01T04:53:32.309Z,6.80
2022-12-01T04:56:02.133Z,6.70
2022-12-01T04:58:29.344Z,6.70
2022-12-01T05:04:10.819Z,6.50
2022-12-01T05:06:38.102Z,6.50
2022-12-01T05:09:04.957Z,6.40
2022-12-01T05:11:32.160Z,6.40
2022-12-01T05:13:59.039Z,6.30
2022-12-01T05:16:26.816Z,6.30
2022-12-01T05:19:15.383Z,6.30
2022-12-01T05:21:42.474Z,6.30
2022-12-01T05:24:09.452Z,6.20
2022-12-01T05:26:36.288Z,6.20
2022-12-01T05:29:03.196Z,6.20
2022-12-01T05:31:30.146Z,6.20
2022-12-01T05:33:57.002Z,6.20
2022-12-01T05:36:23.839Z,6.20
2022-12-01T05:38:50.779Z,6.30
2022-12-01T05:41:17.599Z,6.30
2022-12-01T05:43:44.466Z,6.30
2022-12-01T05:46:12.158Z,6.30
2022-12-01T05:48:39.012Z,6.30
2022-12-01T05:51:09.634Z,6.30
2022-12-01T05:53:36.494Z,6.20
2022-12-01T05:56:03.388Z,6.20
2022-12-01T05:58:30.277Z,6.20
2022-12-01T06:00:57.081Z,6.20
2022-12-01T06:03:23.917Z,6.20
2022-12-01T06:05:50.870Z,6.20
2022-12-01T06:08:17.757Z,6.20
2022-12-01T06:10:44.633Z,6.10
2022-12-01T06:13:11.487Z,6.10
2022-12-01T06:15:38.311Z,6.10
2022-12-01T06:18:05.156Z,6.00
2022-12-01T06:20:31.987Z,6.00
2022-12-01T06:22:59.673Z,6.10
2022-12-01T06:25:26.630Z,6.00
2022-12-01T06:27:57.457Z,6.00
2022-12-01T06:30:24.413Z,6.00
2022-12-01T06:32:51.252Z,6.00
2022-12-01T06:35:18.112Z,6.00
2022-12-01T06:37:45.026Z,5.90
2022-12-01T06:40:12.037Z,5.90
2022-12-01T06:42:38.897Z,5.90
2022-12-01T06:45:05.887Z,5.90
2022-12-01T06:47:32.738Z,5.90
2022-12-01T06:49:59.689Z,5.80
2022-12-01T06:52:26.596Z,5.80
2022-12-01T06:54:53.470Z,5.70
2022-12-01T06:57:20.565Z,5.60
2022-12-01T06:59:47.938Z,5.60
2022-12-01T07:02:16.724Z,5.60
2022-12-01T07:04:43.597Z,5.50
2022-12-01T07:07:11.308Z,5.50
2022-12-01T07:09:38.199Z,5.40
2022-12-01T07:12:05.133Z,5.40
2022-12-01T07:14:32.028Z,5.40
2022-12-01T07:16:59.114Z,5.30
2022-12-01T07:19:25.962Z,5.30
2022-12-01T07:21:52.784Z,5.20
2022-12-01T07:24:19.599Z,5.20
2022-12-01T07:26:46.489Z,5.20
2022-12-01T07:32:16.904Z,5.10
2022-12-01T07:34:43.820Z,5.10
2022-12-01T07:37:11.635Z,5.10
2022-12-01T07:39:38.478Z,5.10
2022-12-01T07:42:05.404Z,5.10
2022-12-01T07:44:32.272Z,5.10
2022-12-01T07:46:59.088Z,5.10
2022-12-01T07:49:25.959Z,5.10
2022-12-01T07:51:52.859Z,5.10
2022-12-01T07:54:21.407Z,5.10
2022-12-01T07:56:48.403Z,5.10
2022-12-01T07:59:15.304Z,5.10
2022-12-01T08:01:44.699Z,5.10
2022-12-01T08:04:11.923Z,5.10
2022-12-01T08:06:39.360Z,5.20
2022-12-01T08:09:06.426Z,5.30
2022-12-01T08:11:33.412Z,5.20
2022-12-01T08:14:00.314Z,5.30
2022-12-01T08:16:27.398Z,5.30
2022-12-01T08:18:54.471Z,5.30
2022-12-01T08:21:21.815Z,5.30
2022-12-01T08:23:49.121Z,5.30
2022-12-01T08:26:17.224Z,5.40
2022-12-01T08:28:44.585Z,5.40
2022-12-01T08:31:12.365Z,5.50
2022-12-01T08:33:39.230Z,5.50
2022-12-01T08:36:06.263Z,5.60
2022-12-01T08:38:33.082Z,5.70
2022-12-01T08:41:00.788Z,5.80
2022-12-01T08:43:56.049Z,5.80
2022-12-01T08:46:14.663Z,5.90
2022-12-01T08:48:41.548Z,6.00
2022-12-01T08:51:10.120Z,6.20
2022-12-01T08:53:40.210Z,6.30
2022-12-01T08:56:12.022Z,6.40
2022-12-01T08:58:39.116Z,6.50
2022-12-01T09:01:08.076Z,6.60
2022-12-01T09:03:35.600Z,6.70
2022-12-01T09:06:12.502Z,6.90
2022-12-01T09:08:39.582Z,7.00
2022-12-01T09:11:07.630Z,7.00
2022-12-01T09:13:34.707Z,7.10
2022-12-01T09:19:17.910Z,7.10
2022-12-01T09:21:49.109Z,7.00
2022-12-01T09:24:15.983Z,7.00
2022-12-01T09:26:42.832Z,7.00
2022-12-01T09:29:10.359Z,6.90
2022-12-01T09:31:37.425Z,7.00
2022-12-01T09:34:04.989Z,6.90
2022-12-01T09:36:32.269Z,6.90
2022-12-01T09:38:59.151Z,6.90
2022-12-01T09:41:35.291Z,6.90
2022-12-01T09:44:06.023Z,6.90
2022-12-01T09:46:34.883Z,6.90
2022-12-01T09:49:01.756Z,6.90
2022-12-01T09:51:28.669Z,6.90
2022-12-01T09:53:57.227Z,6.90
2022-12-01T09:56:24.290Z,7.00
2022-12-01T09:58:52.827Z,7.00
2022-12-01T10:01:25.871Z,7.00
2022-12-01T10:03:55.285Z,7.10
2022-12-01T10:06:34.587Z,7.10
2022-12-01T10:09:01.439Z,7.20
2022-12-01T10:11:32.254Z,7.30
2022-12-01T10:13:59.495Z,7.30
2022-12-01T10:16:31.515Z,7.30
2022-12-01T10:18:58.343Z,7.30
2022-12-01T10:21:45.729Z,7.30
2022-12-01T10:24:31.121Z,7.40
2022-12-01T10:27:16.635Z,7.40
2022-12-01T10:33:01.004Z,7.70
2022-12-01T10:35:36.163Z,7.90
2022-12-01T10:38:04.615Z,8.00
2022-12-01T10:40:35.290Z,8.20
2022-12-01T10:43:02.447Z,8.30
2022-12-01T10:45:30.646Z,8.40
2022-12-01T10:48:09.598Z,8.50
2022-12-01T10:50:36.702Z,8.50
2022-12-01T10:53:03.671Z,8.50
2022-12-01T10:55:31.859Z,8.40
2022-12-01T10:58:02.424Z,8.40
2022-12-01T11:00:58.734Z,8.40
2022-12-01T11:03:21.949Z,8.40
2022-12-01T11:05:58.109Z,8.40
2022-12-01T11:08:45.333Z,8.40
2022-12-01T11:11:31.051Z,8.40
2022-12-01T11:13:58.219Z,8.40
2022-12-01T11:16:41.888Z,8.50
2022-12-01T11:19:23.542Z,8.50
2022-12-01T11:21:57.839Z,8.50
2022-12-01T11:24:27.403Z,8.50
2022-12-01T11:26:54.306Z,8.50
2022-12-01T11:29:26.885Z,8.50
2022-12-01T11:31:53.992Z,8.60
2022-12-01T11:34:22.328Z,8.60
2022-12-01T11:36:50.435Z,8.70
2022-12-01T11:39:23.862Z,8.70
2022-12-01T11:41:54.856Z,8.70
2022-12-01T11:44:43.534Z,8.70
2022-12-01T11:47:23.152Z,8.70
2022-12-01T11:49:55.650Z,8.70
2022-12-01T11:52:27.677Z,8.80
2022-12-01T11:54:55.399Z,8.80
2022-12-01T11:57:37.408Z,8.80
2022-12-01T12:00:17.621Z,8.80
2022-12-01T12:03:03.353Z,8.90
2022-12-01T12:05:49.256Z,8.90
2022-12-01T12:08:34.868Z,8.90
2022-12-01T12:11:09.348Z,9.00
2022-12-01T12:13:36.201Z,9.00
2022-12-01T12:16:05.791Z,9.00
2022-12-01T12:18:47.740Z,9.00
2022-12-01T12:21:17.575Z,9.10
2022-12-01T12:23:47.175Z,9.00
2022-12-01T12:26:21.296Z,9.00
2022-12-01T12:28:57.439Z,9.10
2022-12-01T12:31:30.513Z,9.10
2022-12-01T12:34:15.828Z,9.10
2022-12-01T12:37:01.486Z,9.10
2022-12-01T12:39:31.111Z,9.30
2022-12-01T12:41:58.019Z,9.40
2022-12-01T12:44:36.828Z,9.50
2022-12-01T12:47:11.721Z,9.60
2022-12-01T12:49:46.165Z,9.60
2022-12-01T12:52:20.030Z,9.70
2022-12-01T12:54:49.028Z,9.70
2022-12-01T12:57:25.202Z,9.70
2022-12-01T12:59:53.932Z,9.70
2022-12-01T13:02:23.894Z,9.60
2022-12-01T13:04:52.456Z,9.60
2022-12-01T13:07:24.863Z,9.50
2022-12-01T13:09:53.678Z,9.60
2022-12-01T13:12:30.329Z,9.60
2022-12-01T13:15:01.235Z,9.60
2022-12-01T13:17:33.635Z,9.60
2022-12-01T13:20:00.506Z,9.70
2022-12-01T13:22:31.302Z,9.80
2022-12-01T13:24:58.124Z,9.90
2022-12-01T13:27:25.868Z,9.80
2022-12-01T13:29:53.380Z,9.80
2022-12-01T13:32:29.783Z,9.80
2022-12-01T13:34:56.633Z,9.70
2022-12-01T13:37:31.179Z,9.80
2022-12-01T13:40:07.215Z,9.80
2022-12-01T13:42:34.503Z,9.80
2022-12-01T13:45:02.133Z,9.90
2022-12-01T13:47:37.267Z,9.90
2022-12-01T13:50:22.618Z,10.00
2022-12-01T13:52:50.003Z,10.00
2022-12-01T13:55:16.819Z,10.00
2022-12-01T13:57:50.406Z,10.00
2022-12-01T14:00:21.747Z,10.00
2022-12-01T14:03:08.775Z,9.90
2022-12-01T14:05:41.774Z,9.90
2022-12-01T14:08:24.670Z,9.80
2022-12-01T14:10:55.498Z,9.80
2022-12-01T14:13:22.602Z,9.90
2022-12-01T14:15:59.842Z,9.80
2022-12-01T14:18:26.736Z,9.80
2022-12-01T14:20:53.551Z,9.80
2022-12-01T14:23:24.387Z,9.80
2022-12-01T14:26:17.852Z,9.70
2022-12-01T14:28:59.819Z,9.70
2022-12-01T14:31:32.905Z,9.70
2022-12-01T14:34:02.864Z,9.70
2022-12-01T14:36:36.047Z,9.70
2022-12-01T14:39:26.030Z,9.80
2022-12-01T14:42:03.327Z,9.80
2022-12-01T14:44:33.300Z,9.70
2022-12-01T14:47:12.477Z,9.70
2022-12-01T14:49:43.871Z,9.60
2022-12-01T14:52:26.699Z,9.60
2022-12-01T14:54:54.406Z,9.60
2022-12-01T14:57:22.727Z,9.60
2022-12-01T15:00:01.652Z,9.60
2022-12-01T15:02:28.562Z,9.60
2022-12-01T15:05:15.669Z,9.60
2022-12-01T15:07:43.717Z,9.60
2022-12-01T15:10:16.001Z,9.60
2022-12-01T15:12:42.949Z,9.60
2022-12-01T15:15:24.273Z,9.60
2022-12-01T15:17:52.015Z,9.60
2022-12-01T15:20:31.169Z,9.60
2022-12-01T15:22:58.651Z,9.50
2022-12-01T15:25:26.648Z,9.50
2022-12-01T15:28:22.871Z,9.50
2022-12-01T15:30:50.614Z,9.50
2022-12-01T15:33:27.013Z,9.50
2022-12-01T15:35:55.194Z,9.50
2022-12-01T15:38:22.652Z,9.50
2022-12-01T15:43:38.958Z,9.40
2022-12-01T15:46:12.249Z,9.40
2022-12-01T15:48:39.440Z,9.30
2022-12-01T15:51:11.411Z,9.30
2022-12-01T15:53:40.352Z,9.20
2022-12-01T15:56:07.864Z,9.20
2022-12-01T15:58:36.377Z,9.10
2022-12-01T16:01:09.064Z,9.00
2022-12-01T16:03:47.111Z,9.00
2022-12-01T16:06:13.966Z,8.90
2022-12-01T16:08:40.848Z,8.80
2022-12-01T16:11:11.053Z,8.60
2022-12-01T16:13:45.244Z,8.50
2022-12-01T16:16:30.831Z,8.40
2022-12-01T16:18:57.795Z,8.40
2022-12-01T16:21:24.877Z,8.30
2022-12-01T16:24:01.469Z,8.20
2022-12-01T16:26:28.518Z,8.20
2022-12-01T16:28:55.442Z,8.30
2022-12-01T16:31:22.319Z,8.30
2022-12-01T16:33:49.300Z,8.30
2022-12-01T16:36:16.140Z,8.30
2022-12-01T16:38:43.346Z,8.20
2022-12-01T16:41:16.961Z,8.30
2022-12-01T16:43:59.132Z,8.30
2022-12-01T16:46:30.864Z,8.30
2022-12-01T16:48:57.731Z,8.30
2022-12-01T16:51:35.503Z,8.30
2022-12-01T16:54:11.467Z,8.20
2022-12-01T16:56:38.264Z,8.20
2022-12-01T16:59:05.236Z,8.20
2022-12-01T17:01:32.675Z,8.20
2022-12-01T17:04:02.394Z,8.20
2022-12-01T17:06:33.005Z,8.10
2022-12-01T17:08:59.817Z,8.10
2022-12-01T17:11:26.692Z,8.00
2022-12-01T17:13:53.586Z,8.00
2022-12-01T17:16:20.450Z,7.90
2022-12-01T17:18:47.344Z,7.90
2022-12-01T17:21:14.180Z,7.80
2022-12-01T17:23:41.159Z,7.70
2022-12-01T17:26:09.955Z,7.70
2022-12-01T17:28:36.858Z,7.60
2022-12-01T17:31:04.060Z,7.50
2022-12-01T17:33:31.105Z,7.50
2022-12-01T17:36:01.740Z,7.40
2022-12-01T17:38:28.645Z,7.40
2022-12-01T17:41:04.572Z,7.40
2022-12-01T17:43:32.203Z,7.30
2022-12-01T17:45:59.039Z,7.30
2022-12-01T17:48:26.015Z,7.30
2022-12-01T17:50:52.854Z,7.30
2022-12-01T17:53:19.928Z,7.30
2022-12-01T17:55:46.897Z,7.30
2022-12-01T17:58:13.885Z,7.30
2022-12-01T18:00:40.738Z,7.30
2022-12-01T18:03:08.218Z,7.30
2022-12-01T18:05:35.280Z,7.30
2022-12-01T18:08:02.458Z,7.30
2022-12-01T18:10:29.258Z,7.30
2022-12-01T18:12:56.759Z,7.30
2022-12-01T18:15:27.331Z,7.30
2022-12-01T18:17:57.355Z,7.30
2022-12-01T18:20:24.137Z,7.30
2022-12-01T18:22:50.999Z,7.40
2022-12-01T18:25:18.355Z,7.40
2022-12-01T18:27:45.218Z,7.40
2022-12-01T18:30:12.365Z,7.40
2022-12-01T18:32:39.212Z,7.30
2022-12-01T18:35:06.236Z,7.30
2022-12-01T18:37:33.075Z,7.40
2022-12-01T18:39:59.972Z,7.30
2022-12-01T18:42:26.977Z,7.30
2022-12-01T18:44:53.853Z,7.40
2022-12-01T18:47:20.710Z,7.40
2022-12-01T18:49:47.551Z,7.30
2022-12-01T18:52:14.410Z,7.30
2022-12-01T18:54:41.231Z,7.40
2022-12-01T18:57:08.072Z,7.30
2022-12-01T18:59:34.892Z,7.40
2022-12-01T19:02:01.802Z,7.30
2022-12-01T19:04:29.505Z,7.30
2022-12-01T19:06:56.357Z,7.30
2022-12-01T19:09:23.696Z,7.30
2022-12-01T19:11:52.277Z,7.20
2022-12-01T19:14:19.778Z,7.20
2022-12-01T19:16:47.683Z,7.20
2022-12-01T19:19:15.328Z,7.20
2022-12-01T19:24:47.217Z,7.30
2022-12-01T19:27:17.498Z,7.20
2022-12-01T19:29:44.328Z,7.20
2022-12-01T19:32:11.384Z,7.20
2022-12-01T19:34:38.714Z,7.20
2022-12-01T19:37:05.578Z,7.30
2022-12-01T19:39:32.724Z,7.30
2022-12-01T19:41:59.598Z,7.30
2022-12-01T19:44:26.440Z,7.30
2022-12-01T19:46:53.573Z,7.40
2022-12-01T19:49:20.388Z,7.30
2022-12-01T19:51:47.288Z,7.30
2022-12-01T19:54:15.436Z,7.30
2022-12-01T19:56:42.406Z,7.30
2022-12-01T19:59:11.359Z,7.40
2022-12-01T20:01:38.374Z,7.30
2022-12-01T20:04:05.223Z,7.30
2022-12-01T20:06:32.819Z,7.30
2022-12-01T20:09:00.561Z,7.30
2022-12-01T20:11:29.754Z,7.30
2022-12-01T20:13:56.844Z,7.30
2022-12-01T20:16:24.080Z,7.30
2022-12-01T20:18:52.410Z,7.40
2022-12-01T20:21:20.633Z,7.40
2022-12-01T20:23:48.470Z,7.30
2022-12-01T20:26:15.932Z,7.30
2022-12-01T20:28:42.791Z,7.30
2022-12-01T20:31:13.702Z,7.30
2022-12-01T20:33:40.797Z,7.30
2022-12-01T20:36:09.637Z,7.20
2022-12-01T20:38:36.733Z,7.30
2022-12-01T20:41:04.177Z,7.20
2022-12-01T20:43:31.143Z,7.20
2022-12-01T20:45:58.125Z,7.20
2022-12-01T20:48:25.188Z,7.20
2022-12-01T20:50:52.100Z,7.30
2022-12-01T20:53:18.923Z,7.20
2022-12-01T20:55:45.818Z,7.30
2022-12-01T20:58:12.677Z,7.30
2022-12-01T21:00:40.428Z,7.20
2022-12-01T21:03:07.298Z,7.20
2022-12-01T21:05:34.176Z,7.10
2022-12-01T21:08:01.527Z,7.10
2022-12-01T21:10:28.601Z,7.20
2022-12-01T21:13:16.607Z,7.10
2022-12-01T21:15:52.206Z,7.10
2022-12-01T21:18:24.015Z,7.00
2022-12-01T21:20:52.891Z,7.10
2022-12-01T21:23:20.232Z,7.10
2022-12-01T21:25:48.233Z,7.10
2022-12-01T21:28:19.151Z,7.10
2022-12-01T21:30:46.817Z,7.10
2022-12-01T21:33:34.198Z,7.10
2022-12-01T21:36:01.400Z,7.10
2022-12-01T21:38:28.351Z,7.10
2022-12-01T21:40:55.198Z,7.00
2022-12-01T21:43:22.845Z,7.00
2022-12-01T21:45:54.231Z,7.00
2022-12-01T21:48:23.221Z,7.00
2022-12-01T21:50:54.163Z,7.00
2022-12-01T21:53:21.219Z,7.00
2022-12-01T21:55:49.353Z,6.90
2022-12-01T21:58:22.183Z,6.90
2022-12-01T22:00:48.995Z,7.00
2022-12-01T22:03:21.656Z,7.00
2022-12-01T22:06:21.262Z,7.00
2022-12-01T22:08:38.699Z,7.00
2022-12-01T22:11:05.643Z,7.10
2022-12-01T22:13:40.148Z,7.00
2022-12-01T22:16:11.649Z,7.10
2022-12-01T22:18:39.357Z,7.10
2022-12-01T22:21:22.982Z,7.00
2022-12-01T22:23:50.235Z,7.10
2022-12-01T22:26:19.491Z,7.10
2022-12-01T22:28:46.843Z,7.10
2022-12-01T22:31:16.854Z,7.10
2022-12-01T22:33:43.753Z,7.10
2022-12-01T22:36:23.560Z,7.10
2022-12-01T22:38:50.462Z,7.10
2022-12-01T22:41:18.716Z,7.20
2022-12-01T22:43:52.908Z,7.20
2022-12-01T22:46:26.030Z,7.20
2022-12-01T22:48:55.798Z,7.20
2022-12-01T22:51:24.236Z,7.20
2022-12-01T22:53:52.224Z,7.30
2022-12-01T22:56:34.663Z,7.30
2022-12-01T22:59:02.968Z,7.30
2022-12-01T23:01:30.502Z,7.30
2022-12-01T23:04:00.475Z,7.30
2022-12-01T23:06:45.949Z,7.30
2022-12-01T23:09:13.541Z,7.30
2022-12-01T23:11:42.712Z,7.20
2022-12-01T23:14:13.769Z,7.20
2022-12-01T23:16:40.594Z,7.20
2022-12-01T23:19:09.715Z,7.10
2022-12-01T23:21:36.672Z,7.10
2022-12-01T23:24:03.836Z,7.10
2022-12-01T23:26:30.636Z,7.10
2022-12-01T23:28:57.911Z,7.10
2022-12-01T23:31:25.120Z,7.00
2022-12-01T23:33:52.048Z,7.00
2022-12-01T23:36:21.688Z,7.00
2022-12-01T23:38:50.025Z,7.00
2022-12-01T23:41:23.947Z,7.10
2022-12-01T23:43:52.243Z,7.10
2022-12-01T23:46:19.832Z,7.10
2022-12-01T23:48:53.788Z,7.00
2022-12-01T23:51:24.468Z,7.00
2022-12-01T23:53:51.650Z,7.00
2022-12-01T23:56:22.127Z,7.00
2022-12-01T23:58:49.227Z,7.00
